This is the latest recevied weather packets stored in our database for station/object LRCL. If no packets are shown the sender has not sent any weather packets the latest 10 day(s).
| Time | Temp. | Humidity | Pressure | Rain* | Wind** | Luminosity | Snow |
|---|---|---|---|---|---|---|---|
| 1777973588 | 22.78° C | 29% | 1015 hPa | - | - | - | - |
| 1777972688 | 22.22° C | 27% | 1016 hPa | - | - | - | - |
| 1777971788 | 22.22° C | 27% | 1016 hPa | - | - | - | - |
| 1777969989 | 21.11° C | 33% | 1016 hPa | - | - | - | - |
| 1777969088 | 20° C | 38% | 1016 hPa | - | - | - | - |
| 1777968188 | 20° C | 38% | 1016 hPa | - | - | - | - |
| 1777967302 | 17.78° C | 43% | 1016 hPa | - | - | - | - |
| 1777966388 | 18.89° C | 40% | 1016 hPa | - | - | - | - |
| 1777965488 | 17.78° C | 43% | 1016 hPa | - | - | - | - |
| 1777964588 | 17.78° C | 43% | 1016 hPa | - | - | - | - |
| 1777963688 | 17.22° C | 42% | 1016 hPa | - | - | - | - |
| 1777962788 | 17.22° C | 42% | 1016 hPa | - | - | - | - |
| 1777961888 | 15° C | 48% | 1017 hPa | - | - | - | - |
| 1777960988 | 15° C | 48% | 1017 hPa | - | - | - | - |
| 1777960088 | 12.78° C | 51% | 1017 hPa | - | - | - | - |
| 1777959188 | 12.78° C | 51% | 1017 hPa | - | - | - | - |
| 1777958288 | 11.11° C | 54% | 1017 hPa | - | - | - | - |
| 1777957388 | 11.11° C | 54% | 1017 hPa | - | - | - | - |
| 1777956488 | 10° C | 58% | 1016 hPa | - | - | - | - |
| 1777955588 | 10° C | 58% | 1016 hPa | - | - | - | - |
| 1777954688 | 7.78° C | 66% | 1016 hPa | - | - | - | - |
| 1777942989 | 10° C | 58% | 1016 hPa | - | - | - | - |
| 1777941188 | 10° C | 58% | 1016 hPa | - | - | - | - |
| 1777932188 | 12.22° C | 54% | 1017 hPa | - | - | - | - |
| 1777931288 | 12.22° C | 54% | 1017 hPa | - | - | - | - |
* Rain since midnight (hover to see other rain measurements)
** Current wind speed in m/s (hover to see current wind gust speed)